sensor_id;sensor_type;location;lat;lon;timestamp;pressure;altitude;pressure_sealevel;temperature;humidity
8366;BME280;4220;42.502;24.188;2022-12-07T00:00:19;95320.66;;;7.21;100.00
8366;BME280;4220;42.502;24.188;2022-12-07T00:02:46;95311.28;;;7.12;100.00
8366;BME280;4220;42.502;24.188;2022-12-07T00:05:13;95307.00;;;7.04;100.00
8366;BME280;4220;42.502;24.188;2022-12-07T00:07:41;95316.44;;;7.27;100.00
8366;BME280;4220;42.502;24.188;2022-12-07T00:10:08;95313.44;;;7.36;100.00
8366;BME280;4220;42.502;24.188;2022-12-07T00:12:37;95317.50;;;7.39;100.00
8366;BME280;4220;42.502;24.188;2022-12-07T00:15:04;95310.00;;;7.42;100.00
8366;BME280;4220;42.502;24.188;2022-12-07T00:17:31;95314.28;;;7.43;100.00
8366;BME280;4220;42.502;24.188;2022-12-07T00:19:59;95308.25;;;7.49;100.00
8366;BME280;4220;42.502;24.188;2022-12-07T00:22:25;95307.44;;;7.55;100.00
8366;BME280;4220;42.502;24.188;2022-12-07T00:24:52;95310.69;;;7.57;100.00
8366;BME280;4220;42.502;24.188;2022-12-07T00:27:19;95315.13;;;7.57;100.00
8366;BME280;4220;42.502;24.188;2022-12-07T00:29:47;95312.13;;;7.60;100.00
8366;BME280;4220;42.502;24.188;2022-12-07T00:32:14;95289.56;;;7.51;100.00
8366;BME280;4220;42.502;24.188;2022-12-07T00:34:41;95311.72;;;7.56;100.00
8366;BME280;4220;42.502;24.188;2022-12-07T00:37:07;95320.41;;;7.57;100.00
8366;BME280;4220;42.502;24.188;2022-12-07T00:39:34;95309.06;;;7.56;100.00
8366;BME280;4220;42.502;24.188;2022-12-07T00:42:01;95314.13;;;7.58;100.00
8366;BME280;4220;42.502;24.188;2022-12-07T00:44:28;95310.28;;;7.54;100.00
8366;BME280;4220;42.502;24.188;2022-12-07T00:46:56;95312.72;;;7.55;100.00
8366;BME280;4220;42.502;24.188;2022-12-07T00:49:23;95309.66;;;7.52;100.00
8366;BME280;4220;42.502;24.188;2022-12-07T00:51:50;95313.50;;;7.49;100.00
8366;BME280;4220;42.502;24.188;2022-12-07T00:54:16;95254.72;;;7.14;100.00
8366;BME280;4220;42.502;24.188;2022-12-07T00:56:43;95308.19;;;7.43;100.00
8366;BME280;4220;42.502;24.188;2022-12-07T00:59:12;95312.66;;;7.42;100.00
8366;BME280;4220;42.502;24.188;2022-12-07T01:01:40;95309.22;;;7.42;100.00
8366;BME280;4220;42.502;24.188;2022-12-07T01:04:08;95305.31;;;7.38;100.00
8366;BME280;4220;42.502;24.188;2022-12-07T01:06:35;95300.47;;;7.41;100.00
8366;BME280;4220;42.502;24.188;2022-12-07T01:09:02;95303.28;;;7.33;100.00
8366;BME280;4220;42.502;24.188;2022-12-07T01:11:30;95300.47;;;7.41;100.00
8366;BME280;4220;42.502;24.188;2022-12-07T01:13:58;95311.44;;;7.45;100.00
8366;BME280;4220;42.502;24.188;2022-12-07T01:16:26;95305.16;;;7.39;100.00
8366;BME280;4220;42.502;24.188;2022-12-07T01:18:56;95311.06;;;7.48;100.00
8366;BME280;4220;42.502;24.188;2022-12-07T01:21:25;95260.81;;;7.21;100.00
8366;BME280;4220;42.502;24.188;2022-12-07T01:23:53;95306.13;;;7.38;100.00
8366;BME280;4220;42.502;24.188;2022-12-07T01:26:22;95297.41;;;7.38;100.00
8366;BME280;4220;42.502;24.188;2022-12-07T01:28:50;95267.31;;;7.25;100.00
8366;BME280;4220;42.502;24.188;2022-12-07T01:31:18;95287.69;;;7.45;100.00
8366;BME280;4220;42.502;24.188;2022-12-07T01:33:47;95276.50;;;7.36;100.00
8366;BME280;4220;42.502;24.188;2022-12-07T01:36:17;95279.75;;;7.38;100.00
8366;BME280;4220;42.502;24.188;2022-12-07T01:38:46;95269.41;;;7.37;100.00
8366;BME280;4220;42.502;24.188;2022-12-07T01:41:14;95268.81;;;7.41;100.00
8366;BME280;4220;42.502;24.188;2022-12-07T01:46:43;95267.53;;;7.24;100.00
8366;BME280;4220;42.502;24.188;2022-12-07T01:49:18;95267.53;;;7.31;100.00
8366;BME280;4220;42.502;24.188;2022-12-07T01:51:49;95258.03;;;7.30;100.00
8366;BME280;4220;42.502;24.188;2022-12-07T01:54:19;95267.16;;;7.27;100.00
8366;BME280;4220;42.502;24.188;2022-12-07T01:56:50;95268.38;;;7.31;100.00
8366;BME280;4220;42.502;24.188;2022-12-07T01:59:20;95216.75;;;7.09;100.00
8366;BME280;4220;42.502;24.188;2022-12-07T02:01:50;95268.00;;;7.41;100.00
8366;BME280;4220;42.502;24.188;2022-12-07T02:04:18;95266.56;;;7.45;100.00
8366;BME280;4220;42.502;24.188;2022-12-07T02:06:45;95266.41;;;7.46;100.00
8366;BME280;4220;42.502;24.188;2022-12-07T02:09:13;95257.28;;;7.49;100.00
8366;BME280;4220;42.502;24.188;2022-12-07T02:11:41;95261.53;;;7.50;100.00
8366;BME280;4220;42.502;24.188;2022-12-07T02:14:08;95257.88;;;7.51;100.00
8366;BME280;4220;42.502;24.188;2022-12-07T02:16:42;95253.38;;;7.45;100.00
8366;BME280;4220;42.502;24.188;2022-12-07T02:22:18;95253.97;;;7.40;100.00
8366;BME280;4220;42.502;24.188;2022-12-07T02:24:57;95241.00;;;7.39;100.00
8366;BME280;4220;42.502;24.188;2022-12-07T02:27:43;95248.09;;;7.38;100.00
8366;BME280;4220;42.502;24.188;2022-12-07T02:30:14;95209.06;;;7.14;100.00
8366;BME280;4220;42.502;24.188;2022-12-07T02:32:46;95257.66;;;7.46;100.00
8366;BME280;4220;42.502;24.188;2022-12-07T02:35:19;95248.94;;;7.45;100.00
8366;BME280;4220;42.502;24.188;2022-12-07T02:37:55;95267.00;;;7.42;100.00
8366;BME280;4220;42.502;24.188;2022-12-07T02:40:28;95256.44;;;7.42;100.00
8366;BME280;4220;42.502;24.188;2022-12-07T02:43:02;95242.00;;;7.38;100.00
8366;BME280;4220;42.502;24.188;2022-12-07T02:45:34;95244.41;;;7.33;100.00
8366;BME280;4220;42.502;24.188;2022-12-07T02:48:04;95252.94;;;7.28;100.00
8366;BME280;4220;42.502;24.188;2022-12-07T02:50:31;95245.59;;;7.23;100.00
8366;BME280;4220;42.502;24.188;2022-12-07T02:52:58;95239.56;;;7.30;100.00
8366;BME280;4220;42.502;24.188;2022-12-07T02:55:29;95227.59;;;7.34;100.00
8366;BME280;4220;42.502;24.188;2022-12-07T02:58:09;95235.72;;;7.39;100.00
8366;BME280;4220;42.502;24.188;2022-12-07T03:00:47;95250.50;;;7.33;100.00
8366;BME280;4220;42.502;24.188;2022-12-07T03:03:18;95238.75;;;7.29;100.00
8366;BME280;4220;42.502;24.188;2022-12-07T03:06:01;95243.41;;;7.34;100.00
8366;BME280;4220;42.502;24.188;2022-12-07T03:08:37;95238.91;;;7.28;100.00
8366;BME280;4220;42.502;24.188;2022-12-07T03:11:07;95235.28;;;7.35;100.00
8366;BME280;4220;42.502;24.188;2022-12-07T03:13:40;95241.78;;;7.33;100.00
8366;BME280;4220;42.502;24.188;2022-12-07T03:16:14;95233.88;;;7.33;100.00
8366;BME280;4220;42.502;24.188;2022-12-07T03:18:45;95222.09;;;7.35;100.00
8366;BME280;4220;42.502;24.188;2022-12-07T03:21:16;95228.19;;;7.36;100.00
8366;BME280;4220;42.502;24.188;2022-12-07T03:23:48;95232.03;;;7.27;100.00
8366;BME280;4220;42.502;24.188;2022-12-07T03:26:17;95233.97;;;7.05;100.00
8366;BME280;4220;42.502;24.188;2022-12-07T03:28:50;95236.16;;;6.95;100.00
8366;BME280;4220;42.502;24.188;2022-12-07T03:31:22;95227.19;;;6.89;100.00
8366;BME280;4220;42.502;24.188;2022-12-07T03:33:54;95228.41;;;6.93;100.00
8366;BME280;4220;42.502;24.188;2022-12-07T03:36:26;95226.22;;;6.97;100.00
8366;BME280;4220;42.502;24.188;2022-12-07T03:38:59;95218.16;;;7.05;100.00
8366;BME280;4220;42.502;24.188;2022-12-07T03:41:30;95212.47;;;7.08;100.00
8366;BME280;4220;42.502;24.188;2022-12-07T03:43:58;95215.53;;;7.11;100.00
8366;BME280;4220;42.502;24.188;2022-12-07T03:46:34;95215.53;;;7.05;100.00
8366;BME280;4220;42.502;24.188;2022-12-07T03:49:07;95189.81;;;6.73;100.00
8366;BME280;4220;42.502;24.188;2022-12-07T03:51:40;95210.56;;;6.95;100.00
8366;BME280;4220;42.502;24.188;2022-12-07T03:54:14;95211.84;;;6.99;100.00
8366;BME280;4220;42.502;24.188;2022-12-07T03:56:43;95203.09;;;6.92;100.00
8366;BME280;4220;42.502;24.188;2022-12-07T03:59:12;95217.28;;;6.98;100.00
8366;BME280;4220;42.502;24.188;2022-12-07T04:01:42;95206.72;;;6.91;100.00
8366;BME280;4220;42.502;24.188;2022-12-07T04:04:09;95216.88;;;6.94;100.00
8366;BME280;4220;42.502;24.188;2022-12-07T04:06:36;95209.75;;;6.88;100.00
8366;BME280;4220;42.502;24.188;2022-12-07T04:09:03;95204.47;;;6.88;100.00
8366;BME280;4220;42.502;24.188;2022-12-07T04:11:30;95210.56;;;6.95;100.00
8366;BME280;4220;42.502;24.188;2022-12-07T04:13:57;95200.84;;;6.96;100.00
8366;BME280;4220;42.502;24.188;2022-12-07T04:16:42;95198.00;;;6.91;100.00
8366;BME280;4220;42.502;24.188;2022-12-07T04:19:09;95192.69;;;6.78;100.00
8366;BME280;4220;42.502;24.188;2022-12-07T04:21:36;95205.03;;;6.77;100.00
8366;BME280;4220;42.502;24.188;2022-12-07T04:24:03;95210.69;;;6.74;100.00
8366;BME280;4220;42.502;24.188;2022-12-07T04:26:30;95192.38;;;6.66;100.00
8366;BME280;4220;42.502;24.188;2022-12-07T04:28:57;95201.94;;;6.67;100.00
8366;BME280;4220;42.502;24.188;2022-12-07T04:31:24;95200.72;;;6.63;100.00
8366;BME280;4220;42.502;24.188;2022-12-07T04:33:52;95200.28;;;6.66;100.00
8366;BME280;4220;42.502;24.188;2022-12-07T04:36:19;95201.13;;;6.67;100.00
8366;BME280;4220;42.502;24.188;2022-12-07T04:38:46;95197.03;;;6.64;100.00
8366;BME280;4220;42.502;24.188;2022-12-07T04:41:13;95190.09;;;6.56;100.00
8366;BME280;4220;42.502;24.188;2022-12-07T04:43:40;95206.97;;;6.62;100.00
8366;BME280;4220;42.502;24.188;2022-12-07T04:46:07;95203.50;;;6.55;100.00
8366;BME280;4220;42.502;24.188;2022-12-07T04:48:33;95160.50;;;6.20;100.00
8366;BME280;4220;42.502;24.188;2022-12-07T04:51:02;95195.25;;;6.37;100.00
8366;BME280;4220;42.502;24.188;2022-12-07T04:53:29;95199.66;;;6.30;100.00
8366;BME280;4220;42.502;24.188;2022-12-07T04:55:56;95194.16;;;6.25;100.00
8366;BME280;4220;42.502;24.188;2022-12-07T04:58:22;95209.38;;;6.29;100.00
8366;BME280;4220;42.502;24.188;2022-12-07T05:00:49;95210.41;;;6.01;100.00
8366;BME280;4220;42.502;24.188;2022-12-07T05:03:16;95201.38;;;5.88;100.00
8366;BME280;4220;42.502;24.188;2022-12-07T05:05:43;95205.19;;;5.65;100.00
8366;BME280;4220;42.502;24.188;2022-12-07T05:08:11;95200.78;;;5.51;100.00
8366;BME280;4220;42.502;24.188;2022-12-07T05:10:38;95206.09;;;5.36;100.00
8366;BME280;4220;42.502;24.188;2022-12-07T05:13:05;95209.25;;;5.25;100.00
8366;BME280;4220;42.502;24.188;2022-12-07T05:15:31;95208.72;;;5.15;100.00
8366;BME280;4220;42.502;24.188;2022-12-07T05:17:58;95202.66;;;5.00;100.00
8366;BME280;4220;42.502;24.188;2022-12-07T05:20:25;95180.84;;;4.85;100.00
8366;BME280;4220;42.502;24.188;2022-12-07T05:22:52;95200.56;;;5.10;100.00
8366;BME280;4220;42.502;24.188;2022-12-07T05:25:20;95193.75;;;5.15;100.00
8366;BME280;4220;42.502;24.188;2022-12-07T05:27:47;95194.53;;;5.31;100.00
8366;BME280;4220;42.502;24.188;2022-12-07T05:30:14;95206.06;;;5.51;100.00
8366;BME280;4220;42.502;24.188;2022-12-07T05:32:41;95210.81;;;5.62;100.00
8366;BME280;4220;42.502;24.188;2022-12-07T05:35:08;95206.50;;;5.75;100.00
8366;BME280;4220;42.502;24.188;2022-12-07T05:37:35;95119.06;;;5.31;100.00
8366;BME280;4220;42.502;24.188;2022-12-07T05:40:02;95198.13;;;5.86;100.00
8366;BME280;4220;42.502;24.188;2022-12-07T05:42:31;95194.09;;;5.90;100.00
8366;BME280;4220;42.502;24.188;2022-12-07T05:44:58;95202.88;;;5.98;100.00
8366;BME280;4220;42.502;24.188;2022-12-07T05:47:24;95209.00;;;6.05;100.00
8366;BME280;4220;42.502;24.188;2022-12-07T05:49:51;95205.16;;;6.07;100.00
8366;BME280;4220;42.502;24.188;2022-12-07T05:52:18;95198.09;;;6.08;100.00
8366;BME280;4220;42.502;24.188;2022-12-07T05:54:45;95199.91;;;6.07;100.00
8366;BME280;4220;42.502;24.188;2022-12-07T05:57:12;95205.13;;;6.01;100.00
8366;BME280;4220;42.502;24.188;2022-12-07T05:59:40;95215.53;;;5.87;100.00
8366;BME280;4220;42.502;24.188;2022-12-07T06:02:08;95216.34;;;5.88;100.00
8366;BME280;4220;42.502;24.188;2022-12-07T06:04:39;95216.34;;;5.88;100.00
8366;BME280;4220;42.502;24.188;2022-12-07T06:07:06;95204.38;;;5.85;100.00
8366;BME280;4220;42.502;24.188;2022-12-07T06:09:33;95210.41;;;6.01;100.00
8366;BME280;4220;42.502;24.188;2022-12-07T06:12:02;95200.31;;;6.04;100.00
8366;BME280;4220;42.502;24.188;2022-12-07T06:14:47;95213.31;;;6.12;100.00
8366;BME280;4220;42.502;24.188;2022-12-07T06:17:15;95209.56;;;6.21;100.00
8366;BME280;4220;42.502;24.188;2022-12-07T06:19:42;95218.69;;;6.25;100.00
8366;BME280;4220;42.502;24.188;2022-12-07T06:22:09;95222.38;;;6.31;100.00
8366;BME280;4220;42.502;24.188;2022-12-07T06:24:37;95226.13;;;6.43;100.00
8366;BME280;4220;42.502;24.188;2022-12-07T06:27:04;95229.41;;;6.51;100.00
8366;BME280;4220;42.502;24.188;2022-12-07T06:29:31;95231.03;;;6.52;100.00
8366;BME280;4220;42.502;24.188;2022-12-07T06:31:59;95224.94;;;6.52;100.00
8366;BME280;4220;42.502;24.188;2022-12-07T06:34:26;95227.34;;;6.47;100.00
8366;BME280;4220;42.502;24.188;2022-12-07T06:36:53;95228.91;;;6.41;100.00
8366;BME280;4220;42.502;24.188;2022-12-07T06:39:23;95230.31;;;6.37;100.00
8366;BME280;4220;42.502;24.188;2022-12-07T06:41:50;95231.97;;;6.38;100.00
8366;BME280;4220;42.502;24.188;2022-12-07T06:44:18;95233.78;;;6.38;100.00
8366;BME280;4220;42.502;24.188;2022-12-07T06:46:45;95233.91;;;6.30;100.00
8366;BME280;4220;42.502;24.188;2022-12-07T06:49:13;95227.16;;;6.21;100.00
8366;BME280;4220;42.502;24.188;2022-12-07T06:51:40;95241.56;;;6.25;100.00
8366;BME280;4220;42.502;24.188;2022-12-07T06:54:07;95242.84;;;6.08;100.00
8366;BME280;4220;42.502;24.188;2022-12-07T06:56:35;95244.50;;;6.09;100.00
8366;BME280;4220;42.502;24.188;2022-12-07T06:59:02;95227.41;;;6.05;100.00
8366;BME280;4220;42.502;24.188;2022-12-07T07:01:29;95244.13;;;6.12;100.00
8366;BME280;4220;42.502;24.188;2022-12-07T07:03:56;95237.25;;;6.17;100.00
8366;BME280;4220;42.502;24.188;2022-12-07T07:06:24;95223.06;;;6.12;100.00
8366;BME280;4220;42.502;24.188;2022-12-07T07:08:51;95233.66;;;6.25;100.00
8366;BME280;4220;42.502;24.188;2022-12-07T07:11:18;95191.38;;;6.05;100.00
8366;BME280;4220;42.502;24.188;2022-12-07T07:13:45;95231.09;;;6.31;100.00
8366;BME280;4220;42.502;24.188;2022-12-07T07:16:12;95229.75;;;6.42;100.00
8366;BME280;4220;42.502;24.188;2022-12-07T07:18:39;95231.84;;;6.53;100.00
8366;BME280;4220;42.502;24.188;2022-12-07T07:21:06;95231.75;;;6.40;100.00
8366;BME280;4220;42.502;24.188;2022-12-07T07:23:34;95233.28;;;6.55;100.00
8366;BME280;4220;42.502;24.188;2022-12-07T07:26:01;95235.44;;;6.73;100.00
8366;BME280;4220;42.502;24.188;2022-12-07T07:28:28;95235.69;;;6.85;100.00
8366;BME280;4220;42.502;24.188;2022-12-07T07:30:55;95236.94;;;6.95;100.00
8366;BME280;4220;42.502;24.188;2022-12-07T07:33:22;95196.97;;;6.85;100.00
8366;BME280;4220;42.502;24.188;2022-12-07T07:35:48;95240.31;;;7.17;100.00
8366;BME280;4220;42.502;24.188;2022-12-07T07:38:15;95240.78;;;7.27;100.00
8366;BME280;4220;42.502;24.188;2022-12-07T07:40:43;95241.75;;;7.26;100.00
8366;BME280;4220;42.502;24.188;2022-12-07T07:43:10;95242.00;;;7.31;100.00
8366;BME280;4220;42.502;24.188;2022-12-07T07:45:37;95203.56;;;7.09;100.00
8366;BME280;4220;42.502;24.188;2022-12-07T07:48:04;95241.00;;;7.39;100.00
8366;BME280;4220;42.502;24.188;2022-12-07T07:50:31;95237.97;;;7.42;100.00
8366;BME280;4220;42.502;24.188;2022-12-07T07:52:58;95231.03;;;7.34;100.00
8366;BME280;4220;42.502;24.188;2022-12-07T07:55:24;95240.34;;;7.30;100.00
8366;BME280;4220;42.502;24.188;2022-12-07T07:57:54;95232.03;;;7.33;100.00
8366;BME280;4220;42.502;24.188;2022-12-07T08:00:21;95237.56;;;7.45;100.00
8366;BME280;4220;42.502;24.188;2022-12-07T08:02:48;95238.59;;;7.57;100.00
8366;BME280;4220;42.502;24.188;2022-12-07T08:05:15;95238.44;;;7.65;100.00
8366;BME280;4220;42.502;24.188;2022-12-07T08:07:42;95254.53;;;7.83;100.00
8366;BME280;4220;42.502;24.188;2022-12-07T08:10:11;95245.00;;;7.95;100.00
8366;BME280;4220;42.502;24.188;2022-12-07T08:12:41;95240.53;;;8.02;100.00
8366;BME280;4220;42.502;24.188;2022-12-07T08:15:24;95250.69;;;8.12;100.00
8366;BME280;4220;42.502;24.188;2022-12-07T08:17:50;95237.31;;;8.13;100.00
8366;BME280;4220;42.502;24.188;2022-12-07T08:20:17;95239.13;;;8.13;100.00
8366;BME280;4220;42.502;24.188;2022-12-07T08:22:44;95229.97;;;8.22;100.00
8366;BME280;4220;42.502;24.188;2022-12-07T08:25:11;95230.63;;;8.30;100.00
8366;BME280;4220;42.502;24.188;2022-12-07T08:27:37;95232.44;;;8.43;100.00
8366;BME280;4220;42.502;24.188;2022-12-07T08:30:05;95235.06;;;8.56;100.00
8366;BME280;4220;42.502;24.188;2022-12-07T08:32:34;95239.34;;;8.64;100.00
8366;BME280;4220;42.502;24.188;2022-12-07T08:35:00;95238.91;;;8.73;100.00
8366;BME280;4220;42.502;24.188;2022-12-07T08:37:27;95243.16;;;8.81;100.00
8366;BME280;4220;42.502;24.188;2022-12-07T08:39:54;95242.94;;;8.82;100.00
8366;BME280;4220;42.502;24.188;2022-12-07T08:42:21;95242.16;;;8.75;100.00
8366;BME280;4220;42.502;24.188;2022-12-07T08:44:52;95225.13;;;8.51;100.00
8366;BME280;4220;42.502;24.188;2022-12-07T08:47:19;95229.16;;;8.61;100.00
8366;BME280;4220;42.502;24.188;2022-12-07T08:49:50;95236.69;;;8.77;100.00
8366;BME280;4220;42.502;24.188;2022-12-07T08:52:18;95218.56;;;8.87;100.00
8366;BME280;4220;42.502;24.188;2022-12-07T08:54:45;95183.97;;;8.82;100.00
8366;BME280;4220;42.502;24.188;2022-12-07T08:57:12;95231.47;;;9.21;100.00
8366;BME280;4220;42.502;24.188;2022-12-07T08:59:39;95234.31;;;9.19;100.00
8366;BME280;4220;42.502;24.188;2022-12-07T09:02:06;95225.16;;;9.15;100.00
8366;BME280;4220;42.502;24.188;2022-12-07T09:04:33;95220.88;;;9.21;100.00
8366;BME280;4220;42.502;24.188;2022-12-07T09:07:01;95183.84;;;9.14;100.00
8366;BME280;4220;42.502;24.188;2022-12-07T09:09:28;95180.50;;;9.32;100.00
8366;BME280;4220;42.502;24.188;2022-12-07T09:11:55;95219.78;;;9.79;100.00
8366;BME280;4220;42.502;24.188;2022-12-07T09:14:22;95203.34;;;9.96;100.00
8366;BME280;4220;42.502;24.188;2022-12-07T09:16:49;95167.97;;;9.90;100.00
8366;BME280;4220;42.502;24.188;2022-12-07T09:19:16;95207.13;;;10.13;100.00
8366;BME280;4220;42.502;24.188;2022-12-07T09:21:42;95205.75;;;10.04;100.00
8366;BME280;4220;42.502;24.188;2022-12-07T09:24:11;95198.75;;;10.16;100.00
8366;BME280;4220;42.502;24.188;2022-12-07T09:26:38;95199.41;;;10.36;100.00
8366;BME280;4220;42.502;24.188;2022-12-07T09:29:05;95201.88;;;10.56;100.00
8366;BME280;4220;42.502;24.188;2022-12-07T09:31:32;95197.09;;;10.64;100.00
8366;BME280;4220;42.502;24.188;2022-12-07T09:34:02;95195.22;;;10.71;100.00
8366;BME280;4220;42.502;24.188;2022-12-07T09:36:30;95189.84;;;10.78;100.00
8366;BME280;4220;42.502;24.188;2022-12-07T09:38:57;95191.53;;;10.90;100.00
8366;BME280;4220;42.502;24.188;2022-12-07T09:41:27;95187.47;;;10.88;100.00
8366;BME280;4220;42.502;24.188;2022-12-07T09:44:06;95187.84;;;10.91;100.00
8366;BME280;4220;42.502;24.188;2022-12-07T09:46:35;95184.31;;;10.97;100.00
8366;BME280;4220;42.502;24.188;2022-12-07T09:49:03;95181.22;;;11.00;100.00
8366;BME280;4220;42.502;24.188;2022-12-07T09:51:31;95170.16;;;11.03;100.00
8366;BME280;4220;42.502;24.188;2022-12-07T09:53:58;95174.59;;;11.09;100.00
8366;BME280;4220;42.502;24.188;2022-12-07T09:56:29;95170.09;;;11.10;100.00
8366;BME280;4220;42.502;24.188;2022-12-07T09:58:59;95172.41;;;11.18;100.00
8366;BME280;4220;42.502;24.188;2022-12-07T10:01:28;95163.81;;;11.23;100.00
8366;BME280;4220;42.502;24.188;2022-12-07T10:04:01;95152.06;;;11.30;100.00
8366;BME280;4220;42.502;24.188;2022-12-07T10:06:29;95166.69;;;11.51;100.00
8366;BME280;4220;42.502;24.188;2022-12-07T10:08:55;95165.06;;;11.68;100.00
8366;BME280;4220;42.502;24.188;2022-12-07T10:11:22;95167.66;;;11.86;100.00
8366;BME280;4220;42.502;24.188;2022-12-07T10:13:52;95163.50;;;11.90;100.00
8366;BME280;4220;42.502;24.188;2022-12-07T10:16:37;95164.34;;;12.02;100.00
8366;BME280;4220;42.502;24.188;2022-12-07T10:19:24;95119.72;;;11.81;100.00
8366;BME280;4220;42.502;24.188;2022-12-07T10:22:03;95155.09;;;12.05;100.00
8366;BME280;4220;42.502;24.188;2022-12-07T10:24:30;95149.66;;;12.00;100.00
8366;BME280;4220;42.502;24.188;2022-12-07T10:26:58;95165.59;;;12.00;100.00
8366;BME280;4220;42.502;24.188;2022-12-07T10:29:29;95144.47;;;11.93;100.00
8366;BME280;4220;42.502;24.188;2022-12-07T10:31:58;95153.72;;;12.02;100.00
8366;BME280;4220;42.502;24.188;2022-12-07T10:34:27;95149.78;;;12.05;100.00
8366;BME280;4220;42.502;24.188;2022-12-07T10:37:13;95147.25;;;12.10;100.00
8366;BME280;4220;42.502;24.188;2022-12-07T10:39:42;95152.00;;;12.08;100.00
8366;BME280;4220;42.502;24.188;2022-12-07T10:42:16;95147.44;;;11.97;100.00
8366;BME280;4220;42.502;24.188;2022-12-07T10:44:46;95141.66;;;11.88;100.00
8366;BME280;4220;42.502;24.188;2022-12-07T10:47:20;95147.00;;;11.88;100.00
8366;BME280;4220;42.502;24.188;2022-12-07T10:53:21;95149.09;;;11.98;100.00
8366;BME280;4220;42.502;24.188;2022-12-07T10:56:23;95128.69;;;11.80;100.00
8366;BME280;4220;42.502;24.188;2022-12-07T10:59:03;95130.53;;;11.68;100.00
8366;BME280;4220;42.502;24.188;2022-12-07T11:01:45;95126.22;;;11.67;100.00
8366;BME280;4220;42.502;24.188;2022-12-07T11:04:21;95115.75;;;11.72;100.00
8366;BME280;4220;42.502;24.188;2022-12-07T11:06:54;95114.59;;;11.79;100.00
8366;BME280;4220;42.502;24.188;2022-12-07T11:09:53;95107.00;;;11.83;100.00
8366;BME280;4220;42.502;24.188;2022-12-07T11:12:29;95109.53;;;11.78;100.00
8366;BME280;4220;42.502;24.188;2022-12-07T11:15:07;95107.56;;;11.73;100.00
8366;BME280;4220;42.502;24.188;2022-12-07T11:17:47;95108.66;;;11.66;100.00
8366;BME280;4220;42.502;24.188;2022-12-07T11:20:28;95103.06;;;11.44;100.00
8366;BME280;4220;42.502;24.188;2022-12-07T11:23:04;95102.72;;;11.52;100.00
8366;BME280;4220;42.502;24.188;2022-12-07T11:25:44;95092.97;;;11.64;100.00
8366;BME280;4220;42.502;24.188;2022-12-07T11:28:26;95097.91;;;11.61;100.00
8366;BME280;4220;42.502;24.188;2022-12-07T11:31:03;95100.53;;;11.49;100.00
8366;BME280;4220;42.502;24.188;2022-12-07T11:33:40;95099.75;;;11.31;100.00
8366;BME280;4220;42.502;24.188;2022-12-07T11:36:29;95085.38;;;11.08;100.00
8366;BME280;4220;42.502;24.188;2022-12-07T11:39:00;95095.31;;;11.13;100.00
8366;BME280;4220;42.502;24.188;2022-12-07T11:41:30;95094.97;;;11.39;100.00
8366;BME280;4220;42.502;24.188;2022-12-07T11:44:04;95084.09;;;11.82;100.00
8366;BME280;4220;42.502;24.188;2022-12-07T11:46:43;95097.88;;;12.14;100.00
8366;BME280;4220;42.502;24.188;2022-12-07T11:49:19;95094.53;;;12.41;100.00
8366;BME280;4220;42.502;24.188;2022-12-07T11:51:51;95088.94;;;12.78;100.00
8366;BME280;4220;42.502;24.188;2022-12-07T11:54:21;95092.03;;;12.98;99.08
8366;BME280;4220;42.502;24.188;2022-12-07T11:56:51;95080.78;;;13.07;96.47
8366;BME280;4220;42.502;24.188;2022-12-07T11:59:23;95072.06;;;13.24;96.67
8366;BME280;4220;42.502;24.188;2022-12-07T12:01:55;95077.59;;;13.34;95.65
8366;BME280;4220;42.502;24.188;2022-12-07T12:04:32;95075.31;;;13.42;93.93
8366;BME280;4220;42.502;24.188;2022-12-07T12:07:01;95076.63;;;13.40;93.37
8366;BME280;4220;42.502;24.188;2022-12-07T12:09:32;95081.84;;;13.63;93.05
8366;BME280;4220;42.502;24.188;2022-12-07T12:15:32;95072.56;;;13.99;90.89
8366;BME280;4220;42.502;24.188;2022-12-07T12:20:57;95073.63;;;13.98;90.53
8366;BME280;4220;42.502;24.188;2022-12-07T12:23:35;95065.13;;;14.01;90.76
8366;BME280;4220;42.502;24.188;2022-12-07T12:26:05;95046.47;;;14.01;90.19
8366;BME280;4220;42.502;24.188;2022-12-07T12:28:38;95055.50;;;14.16;90.23
8366;BME280;4220;42.502;24.188;2022-12-07T12:31:10;95045.59;;;14.12;90.02
8366;BME280;4220;42.502;24.188;2022-12-07T12:33:43;95055.03;;;14.36;90.04
8366;BME280;4220;42.502;24.188;2022-12-07T12:36:24;95055.03;;;14.36;90.18
8366;BME280;4220;42.502;24.188;2022-12-07T12:39:08;95049.44;;;14.54;89.36
8366;BME280;4220;42.502;24.188;2022-12-07T12:42:06;95060.31;;;14.53;88.97
8366;BME280;4220;42.502;24.188;2022-12-07T12:45:17;95051.09;;;14.60;89.04
8366;BME280;4220;42.502;24.188;2022-12-07T12:47:55;95047.81;;;14.75;88.83
8366;BME280;4220;42.502;24.188;2022-12-07T12:50:27;95003.38;;;14.64;87.25
8366;BME280;4220;42.502;24.188;2022-12-07T12:53:15;95049.00;;;15.05;86.48
8366;BME280;4220;42.502;24.188;2022-12-07T12:56:11;95047.38;;;15.04;87.18
8366;BME280;4220;42.502;24.188;2022-12-07T12:58:44;95049.28;;;15.09;87.61
8366;BME280;4220;42.502;24.188;2022-12-07T13:01:44;95043.34;;;15.02;87.39
8366;BME280;4220;42.502;24.188;2022-12-07T13:04:36;95041.41;;;14.97;87.92
8366;BME280;4220;42.502;24.188;2022-12-07T13:07:04;95035.03;;;14.98;87.32
8366;BME280;4220;42.502;24.188;2022-12-07T13:09:34;95050.25;;;14.76;88.14
8366;BME280;4220;42.502;24.188;2022-12-07T13:12:04;95033.63;;;14.14;90.22
8366;BME280;4220;42.502;24.188;2022-12-07T13:14:56;95031.94;;;13.58;92.82
8366;BME280;4220;42.502;24.188;2022-12-07T13:18:01;95033.69;;;13.36;94.34
8366;BME280;4220;42.502;24.188;2022-12-07T13:20:52;95018.09;;;12.60;96.95
8366;BME280;4220;42.502;24.188;2022-12-07T13:23:23;95039.03;;;12.33;99.30
8366;BME280;4220;42.502;24.188;2022-12-07T13:26:09;95029.13;;;11.71;100.00
8366;BME280;4220;42.502;24.188;2022-12-07T13:28:41;95029.00;;;11.77;100.00
8366;BME280;4220;42.502;24.188;2022-12-07T13:31:19;95027.84;;;11.85;100.00
8366;BME280;4220;42.502;24.188;2022-12-07T13:33:48;94959.22;;;11.47;100.00
8366;BME280;4220;42.502;24.188;2022-12-07T13:36:21;95013.50;;;11.74;100.00
8366;BME280;4220;42.502;24.188;2022-12-07T13:38:51;95019.19;;;11.78;100.00
8366;BME280;4220;42.502;24.188;2022-12-07T13:41:21;95027.16;;;11.78;100.00